createdAt,value
2022-08-20T00:01:02.591Z,26.07
2022-08-20T00:02:41.357Z,27.43
2022-08-20T00:04:15.586Z,27.17
2022-08-20T00:05:52.705Z,28.43
2022-08-20T00:07:31.001Z,27.23
2022-08-20T00:09:05.613Z,28.53
2022-08-20T00:10:40.865Z,28.20
2022-08-20T00:12:17.169Z,26.60
2022-08-20T00:13:53.149Z,27.60
2022-08-20T00:15:30.853Z,28.10
2022-08-20T00:17:04.723Z,27.93
2022-08-20T00:18:38.229Z,27.17
2022-08-20T00:20:14.187Z,27.83
2022-08-20T00:21:47.292Z,28.63
2022-08-20T00:23:23.525Z,26.73
2022-08-20T00:24:58.014Z,27.67
2022-08-20T00:26:31.381Z,27.70
2022-08-20T00:28:04.136Z,27.97
2022-08-20T00:29:37.269Z,27.53
2022-08-20T00:31:13.223Z,28.63
2022-08-20T00:32:49.036Z,29.33
2022-08-20T00:34:22.241Z,28.90
2022-08-20T00:35:57.397Z,27.00
2022-08-20T00:37:29.542Z,27.20
2022-08-20T00:39:03.134Z,27.33
2022-08-20T00:40:42.036Z,28.43
2022-08-20T00:42:15.230Z,26.90
2022-08-20T00:43:50.467Z,28.37
2022-08-20T00:45:24.140Z,28.90
2022-08-20T00:46:57.270Z,29.10
2022-08-20T00:48:33.601Z,30.40
2022-08-20T00:50:07.899Z,28.63
2022-08-20T00:51:44.235Z,30.63
2022-08-20T00:53:19.293Z,30.10
2022-08-20T00:54:56.420Z,29.77
2022-08-20T00:56:33.382Z,30.57
2022-08-20T00:58:10.099Z,31.27
2022-08-20T00:59:43.701Z,32.03
2022-08-20T01:01:16.847Z,30.77
2022-08-20T01:02:50.900Z,30.07
2022-08-20T01:04:24.919Z,32.13
2022-08-20T01:05:58.143Z,31.77
2022-08-20T01:07:34.782Z,31.87
2022-08-20T01:09:07.521Z,33.50
2022-08-20T01:10:44.683Z,31.53
2022-08-20T01:12:19.957Z,31.20
2022-08-20T01:13:53.169Z,32.07
2022-08-20T01:15:30.950Z,31.70
2022-08-20T01:17:07.629Z,32.47
2022-08-20T01:18:42.123Z,31.23
2022-08-20T01:20:18.715Z,31.23
2022-08-20T01:21:52.621Z,32.17
2022-08-20T01:23:34.736Z,32.70
2022-08-20T01:25:13.075Z,32.00
2022-08-20T01:26:49.186Z,32.17
2022-08-20T01:28:26.118Z,33.17
2022-08-20T01:30:00.624Z,34.17
2022-08-20T01:31:41.926Z,32.60
2022-08-20T01:33:14.060Z,35.23
2022-08-20T01:34:47.308Z,34.27
2022-08-20T01:36:26.556Z,35.33
2022-08-20T01:37:59.731Z,34.80
2022-08-20T01:39:35.627Z,34.83
2022-08-20T01:41:28.293Z,35.67
2022-08-20T01:43:09.951Z,33.83
2022-08-20T01:44:47.039Z,36.60
2022-08-20T01:46:19.259Z,36.20
2022-08-20T01:47:53.072Z,36.17
2022-08-20T01:49:29.388Z,38.77
2022-08-20T01:51:07.290Z,36.40
2022-08-20T01:52:44.600Z,38.40
2022-08-20T01:54:18.090Z,38.23
2022-08-20T01:55:50.330Z,38.27
2022-08-20T01:57:26.762Z,37.87
2022-08-20T01:59:06.360Z,38.87
2022-08-20T02:00:38.567Z,39.33
2022-08-20T02:02:13.777Z,39.57
2022-08-20T02:03:45.944Z,40.53
2022-08-20T02:05:19.815Z,41.13
2022-08-20T02:06:57.877Z,39.93
2022-08-20T02:08:33.247Z,40.03
2022-08-20T02:10:07.697Z,41.57
2022-08-20T02:11:41.772Z,41.17
2022-08-20T02:13:15.241Z,42.23
2022-08-20T02:14:52.194Z,40.80
2022-08-20T02:16:29.320Z,41.60
2022-08-20T02:18:04.649Z,42.07
2022-08-20T02:19:43.306Z,41.60
2022-08-20T02:21:16.709Z,41.73
2022-08-20T02:22:53.020Z,43.17
2022-08-20T02:24:28.371Z,44.57
2022-08-20T02:26:01.481Z,44.60
2022-08-20T02:27:34.629Z,42.83
2022-08-20T02:29:09.908Z,42.77
2022-08-20T02:30:46.961Z,42.73
2022-08-20T02:32:32.537Z,42.80
2022-08-20T02:34:14.725Z,41.73
2022-08-20T02:35:57.509Z,42.37
2022-08-20T02:37:30.835Z,42.90
2022-08-20T02:39:05.081Z,41.53
2022-08-20T02:40:41.173Z,44.00
2022-08-20T02:42:14.371Z,44.27
2022-08-20T02:43:47.514Z,44.20
2022-08-20T02:45:22.549Z,43.80
2022-08-20T02:46:57.160Z,44.83
2022-08-20T02:48:31.310Z,45.23
2022-08-20T02:50:07.984Z,45.80
2022-08-20T02:51:41.217Z,47.10
2022-08-20T02:53:14.435Z,44.87
2022-08-20T02:54:48.860Z,47.33
2022-08-20T02:56:22.045Z,46.07
2022-08-20T02:57:55.247Z,45.33
2022-08-20T02:59:31.703Z,46.13
2022-08-20T03:01:07.761Z,47.07
2022-08-20T03:02:41.504Z,46.33
2022-08-20T03:04:14.616Z,46.70
2022-08-20T03:05:47.749Z,45.67
2022-08-20T03:07:21.152Z,44.60
2022-08-20T03:08:54.627Z,45.30
2022-08-20T03:10:29.555Z,45.33
2022-08-20T03:12:02.880Z,45.93
2022-08-20T03:13:37.486Z,44.83
2022-08-20T03:15:17.612Z,45.90
2022-08-20T03:16:51.059Z,46.13
2022-08-20T03:18:28.219Z,45.50
2022-08-20T03:20:01.383Z,46.53
2022-08-20T03:21:35.269Z,46.93
2022-08-20T03:23:07.571Z,45.37
2022-08-20T03:24:40.901Z,46.50
2022-08-20T03:26:16.427Z,48.47
2022-08-20T03:27:54.427Z,46.93
2022-08-20T03:29:27.907Z,45.53
2022-08-20T03:31:00.250Z,46.57
2022-08-20T03:32:33.508Z,44.23
2022-08-20T03:34:08.214Z,45.47
2022-08-20T03:35:41.356Z,44.73
2022-08-20T03:37:14.889Z,43.17
2022-08-20T03:38:48.001Z,44.97
2022-08-20T03:40:23.105Z,44.10
2022-08-20T03:41:56.287Z,46.87
2022-08-20T03:43:29.562Z,47.20
2022-08-20T03:45:02.651Z,44.03
2022-08-20T03:46:34.978Z,45.90
2022-08-20T03:48:10.289Z,46.90
2022-08-20T03:49:44.862Z,46.40
2022-08-20T03:51:17.997Z,45.03
2022-08-20T03:52:51.180Z,44.43
2022-08-20T03:54:23.382Z,44.70
2022-08-20T03:56:02.096Z,43.27
2022-08-20T03:57:36.350Z,43.63
2022-08-20T03:59:09.757Z,43.53
2022-08-20T04:00:46.268Z,42.43
2022-08-20T04:02:18.609Z,40.57
2022-08-20T04:03:55.087Z,40.13
2022-08-20T04:05:33.449Z,39.53
2022-08-20T04:07:11.502Z,39.00
2022-08-20T04:08:44.700Z,36.60
2022-08-20T04:10:17.948Z,37.00
2022-08-20T04:11:51.122Z,38.07
2022-08-20T04:13:24.983Z,36.57
2022-08-20T04:14:58.487Z,34.17
2022-08-20T04:16:33.479Z,32.93
2022-08-20T04:18:07.926Z,31.57
2022-08-20T04:19:42.026Z,31.37
2022-08-20T04:21:15.518Z,29.63
2022-08-20T04:22:50.809Z,30.93
2022-08-20T04:24:33.184Z,30.17
2022-08-20T04:26:05.328Z,29.67
2022-08-20T04:27:39.589Z,30.17
2022-08-20T04:29:12.948Z,29.57
2022-08-20T04:30:51.709Z,28.53
2022-08-20T04:32:25.160Z,27.23
2022-08-20T04:34:00.143Z,26.00
2022-08-20T04:35:33.388Z,25.43
2022-08-20T04:37:16.810Z,24.70
2022-08-20T04:38:51.142Z,26.30
2022-08-20T04:40:42.163Z,24.63
2022-08-20T04:42:15.237Z,21.40
2022-08-20T04:43:48.384Z,21.10
2022-08-20T04:45:22.259Z,21.50
2022-08-20T04:46:55.684Z,21.93
2022-08-20T04:48:30.789Z,20.07
2022-08-20T04:50:09.300Z,19.83
2022-08-20T04:51:43.787Z,21.33
2022-08-20T04:53:25.289Z,17.57
2022-08-20T04:54:58.897Z,17.07
2022-08-20T04:56:38.481Z,15.27
2022-08-20T04:58:14.515Z,15.93
2022-08-20T04:59:47.854Z,13.70
2022-08-20T05:01:20.251Z,12.77
2022-08-20T05:02:53.680Z,10.70
2022-08-20T05:04:27.580Z,11.67
2022-08-20T05:06:01.630Z,10.27
2022-08-20T05:07:40.325Z,10.20
2022-08-20T05:09:14.841Z,9.90
2022-08-20T05:10:48.507Z,9.37
2022-08-20T05:12:21.647Z,9.63
2022-08-20T05:13:54.761Z,9.97
2022-08-20T05:15:28.062Z,8.90
2022-08-20T05:17:05.538Z,9.00
2022-08-20T05:18:38.795Z,7.80
2022-08-20T05:20:18.249Z,7.13
2022-08-20T05:21:52.473Z,7.00
2022-08-20T05:23:25.652Z,7.03
2022-08-20T05:25:01.757Z,6.67
2022-08-20T05:26:35.015Z,5.80
2022-08-20T05:28:12.310Z,6.27
2022-08-20T05:29:45.456Z,6.97
2022-08-20T05:31:21.669Z,6.30
2022-08-20T05:32:53.984Z,6.80
2022-08-20T05:34:27.121Z,7.53
2022-08-20T05:36:00.370Z,8.20
2022-08-20T05:37:33.684Z,9.63
2022-08-20T05:39:07.181Z,10.40
2022-08-20T05:40:42.791Z,10.10
2022-08-20T05:42:16.617Z,11.37
2022-08-20T05:43:51.633Z,12.07
2022-08-20T05:45:24.801Z,12.37
2022-08-20T05:46:57.921Z,13.83
2022-08-20T05:48:31.066Z,13.63
2022-08-20T05:50:05.721Z,13.53
2022-08-20T05:51:39.094Z,14.57
2022-08-20T05:53:12.938Z,13.43
2022-08-20T05:54:46.019Z,14.57
2022-08-20T05:56:21.645Z,15.10
2022-08-20T05:58:00.465Z,13.93
2022-08-20T05:59:34.786Z,14.07
2022-08-20T06:01:08.025Z,13.60
2022-08-20T06:03:04.857Z,13.73
2022-08-20T06:04:36.953Z,12.97
2022-08-20T06:06:17.962Z,12.40
2022-08-20T06:08:07.716Z,12.00
2022-08-20T06:09:44.310Z,12.60
2022-08-20T06:11:18.889Z,11.47
2022-08-20T06:12:53.413Z,12.17
2022-08-20T06:14:26.844Z,13.50
2022-08-20T06:15:59.992Z,12.40
2022-08-20T06:17:39.318Z,12.03
2022-08-20T06:19:13.281Z,13.83
2022-08-20T06:20:47.044Z,12.77
2022-08-20T06:22:23.707Z,14.30
2022-08-20T06:23:59.745Z,14.90
2022-08-20T06:25:37.958Z,15.60
2022-08-20T06:27:15.450Z,17.27
2022-08-20T06:28:50.009Z,18.00
2022-08-20T06:30:27.565Z,19.37
2022-08-20T06:32:02.057Z,19.00
2022-08-20T06:33:35.188Z,20.93
2022-08-20T06:35:10.587Z,20.90
2022-08-20T06:36:46.707Z,22.13
2022-08-20T06:38:20.218Z,24.77
2022-08-20T06:39:53.174Z,23.13
2022-08-20T06:41:35.792Z,27.10
2022-08-20T06:43:09.922Z,27.27
2022-08-20T06:44:49.990Z,27.43
2022-08-20T06:46:23.450Z,30.03
2022-08-20T06:47:59.223Z,28.57
2022-08-20T06:49:35.262Z,28.20
2022-08-20T06:51:09.807Z,29.80
2022-08-20T06:53:03.349Z,28.67
2022-08-20T06:54:35.393Z,23.20
2022-08-20T06:56:08.616Z,22.17
2022-08-20T06:57:42.724Z,22.80
2022-08-20T06:59:15.972Z,25.30
2022-08-20T07:00:50.878Z,25.17
2022-08-20T07:02:29.239Z,25.37
2022-08-20T07:04:05.583Z,27.37
2022-08-20T07:05:42.173Z,30.07
2022-08-20T07:07:18.147Z,32.57
2022-08-20T07:08:51.276Z,31.67
2022-08-20T07:10:25.788Z,32.10
2022-08-20T07:11:58.945Z,34.77
2022-08-20T07:13:32.304Z,35.87
2022-08-20T07:15:06.261Z,34.30
2022-08-20T07:16:40.793Z,38.23
2022-08-20T07:18:14.945Z,36.63
2022-08-20T07:19:48.313Z,35.10
2022-08-20T07:21:21.477Z,35.57
2022-08-20T07:22:54.682Z,35.60
2022-08-20T07:24:32.844Z,38.17
2022-08-20T07:26:08.110Z,37.57
2022-08-20T07:27:41.581Z,37.23
2022-08-20T07:29:14.804Z,39.43
2022-08-20T07:31:12.228Z,36.07
2022-08-20T07:32:47.573Z,33.83
2022-08-20T07:34:20.901Z,36.70
2022-08-20T07:35:54.048Z,37.43
2022-08-20T07:37:27.260Z,37.67
2022-08-20T07:39:05.920Z,38.57
2022-08-20T07:40:39.312Z,37.90
2022-08-20T07:42:12.844Z,38.60
2022-08-20T07:43:46.498Z,37.47
2022-08-20T07:45:20.659Z,38.87
2022-08-20T07:46:53.797Z,36.83
2022-08-20T07:48:32.043Z,37.30
2022-08-20T07:50:06.987Z,39.93
2022-08-20T07:51:40.355Z,36.73
2022-08-20T07:53:13.504Z,34.90
2022-08-20T07:54:46.763Z,36.80
2022-08-20T07:56:22.744Z,31.97
2022-08-20T07:58:00.311Z,32.00
2022-08-20T07:59:33.611Z,34.00
2022-08-20T08:01:08.106Z,32.13
2022-08-20T08:02:41.785Z,32.43
2022-08-20T08:04:16.882Z,31.83
2022-08-20T08:05:52.056Z,30.70
2022-08-20T08:07:26.410Z,31.67
2022-08-20T08:09:04.407Z,31.97
2022-08-20T08:10:38.160Z,30.63
2022-08-20T08:12:13.166Z,33.07
2022-08-20T08:13:47.177Z,34.03
2022-08-20T08:15:24.953Z,33.40
2022-08-20T08:17:01.043Z,33.13
2022-08-20T08:18:39.663Z,34.60
2022-08-20T08:20:14.540Z,33.43
2022-08-20T08:21:47.820Z,34.10
2022-08-20T08:23:25.481Z,35.03
2022-08-20T08:25:06.316Z,34.10
2022-08-20T08:26:39.825Z,36.00
2022-08-20T08:28:14.259Z,34.17
2022-08-20T08:29:49.758Z,34.77
2022-08-20T08:31:25.620Z,35.30
2022-08-20T08:33:16.562Z,34.80
2022-08-20T08:34:49.747Z,37.00
2022-08-20T08:36:27.062Z,40.90
2022-08-20T08:38:02.181Z,39.90
2022-08-20T08:39:35.464Z,41.80
2022-08-20T08:41:16.652Z,41.83
2022-08-20T08:42:55.974Z,41.60
2022-08-20T08:44:35.036Z,42.43
2022-08-20T08:46:12.019Z,41.17
2022-08-20T08:47:46.631Z,42.80
2022-08-20T08:49:24.708Z,44.00
2022-08-20T08:51:12.847Z,42.37
2022-08-20T08:52:49.333Z,45.67
2022-08-20T08:54:25.851Z,43.87
2022-08-20T08:55:59.893Z,45.77
2022-08-20T08:57:33.777Z,43.03
2022-08-20T08:59:09.576Z,43.43
2022-08-20T09:00:52.701Z,43.97
2022-08-20T09:02:31.586Z,42.57
2022-08-20T09:04:05.958Z,46.90
2022-08-20T09:05:45.598Z,41.50
2022-08-20T09:07:19.209Z,42.33
2022-08-20T09:08:59.135Z,40.83
2022-08-20T09:10:31.313Z,42.43
2022-08-20T09:12:08.241Z,43.33
2022-08-20T09:13:43.137Z,42.53
2022-08-20T09:15:16.624Z,43.00
2022-08-20T09:16:52.629Z,43.73
2022-08-20T09:18:26.555Z,44.03
2022-08-20T09:19:59.728Z,44.93
2022-08-20T09:21:32.869Z,43.83
2022-08-20T09:23:07.021Z,44.53
2022-08-20T09:24:42.609Z,46.30
2022-08-20T09:26:15.836Z,45.53
2022-08-20T09:27:49.026Z,46.20
2022-08-20T09:29:24.133Z,45.33
2022-08-20T09:30:57.507Z,44.93
2022-08-20T09:32:31.606Z,45.43
2022-08-20T09:34:06.274Z,46.33
2022-08-20T09:35:40.167Z,44.03
2022-08-20T09:37:13.521Z,46.70
2022-08-20T09:38:47.129Z,45.47
2022-08-20T09:40:22.033Z,45.73
2022-08-20T09:41:55.202Z,48.07
2022-08-20T09:43:28.559Z,45.43
2022-08-20T09:45:02.001Z,44.87
2022-08-20T09:46:35.142Z,46.27
2022-08-20T09:48:10.407Z,47.47
2022-08-20T09:49:43.975Z,45.13
2022-08-20T09:51:17.191Z,49.33
2022-08-20T09:52:53.710Z,44.27
2022-08-20T09:54:30.020Z,44.23
2022-08-20T09:56:05.072Z,45.33
2022-08-20T09:57:38.489Z,44.03
2022-08-20T09:59:11.673Z,43.73
2022-08-20T10:00:44.898Z,43.80
2022-08-20T10:02:18.053Z,42.13
2022-08-20T10:03:51.967Z,42.00
2022-08-20T10:05:25.272Z,42.07
2022-08-20T10:06:59.513Z,41.23
2022-08-20T10:08:32.623Z,40.67
2022-08-20T10:10:07.417Z,41.10
2022-08-20T10:11:42.227Z,41.60
2022-08-20T10:13:15.533Z,41.83
2022-08-20T10:14:49.546Z,42.80
2022-08-20T10:16:23.390Z,41.23
2022-08-20T10:17:57.630Z,41.47
2022-08-20T10:19:32.190Z,43.27
2022-08-20T10:21:10.495Z,43.93
2022-08-20T10:22:43.780Z,46.50
2022-08-20T10:24:16.895Z,47.17
2022-08-20T10:25:50.278Z,47.47
2022-08-20T10:27:24.818Z,47.73
2022-08-20T10:28:58.241Z,47.97
2022-08-20T10:30:31.410Z,46.07
2022-08-20T10:32:13.472Z,47.37
2022-08-20T10:33:46.604Z,48.27
2022-08-20T10:35:20.228Z,48.27
2022-08-20T10:36:53.490Z,50.40
2022-08-20T10:38:26.621Z,51.13
2022-08-20T10:39:59.779Z,50.23
2022-08-20T10:41:31.948Z,53.20
2022-08-20T10:43:06.420Z,51.93
2022-08-20T10:44:39.803Z,53.43
2022-08-20T10:46:13.072Z,53.30
2022-08-20T10:47:46.789Z,51.37
2022-08-20T10:49:19.894Z,53.40
2022-08-20T10:50:53.945Z,54.07
2022-08-20T10:52:28.371Z,52.67
2022-08-20T10:54:01.559Z,54.87
2022-08-20T10:55:34.746Z,52.50
2022-08-20T10:57:06.988Z,52.53
2022-08-20T10:58:41.572Z,51.10
2022-08-20T11:00:17.082Z,51.93
2022-08-20T11:01:50.310Z,82.10
2022-08-20T11:03:23.641Z,57.67
2022-08-20T11:04:57.039Z,53.93
2022-08-20T11:06:30.276Z,53.33
2022-08-20T11:08:05.217Z,54.53
2022-08-20T11:09:38.555Z,49.73
2022-08-20T11:11:11.750Z,51.77
2022-08-20T11:12:46.125Z,50.47
2022-08-20T11:14:21.008Z,51.13
2022-08-20T11:15:54.238Z,51.27
2022-08-20T11:17:30.558Z,49.97
2022-08-20T11:19:03.734Z,50.80
2022-08-20T11:20:37.056Z,53.20
2022-08-20T11:22:11.528Z,53.07
2022-08-20T11:23:44.673Z,51.53
2022-08-20T11:25:18.000Z,51.00
2022-08-20T11:26:53.273Z,52.60
2022-08-20T11:28:31.928Z,51.80
2022-08-20T11:30:10.516Z,52.63
2022-08-20T11:31:44.085Z,53.93
2022-08-20T11:33:17.526Z,52.27
2022-08-20T11:34:54.644Z,52.93
2022-08-20T11:36:27.896Z,50.50
2022-08-20T11:38:01.720Z,51.90
2022-08-20T11:39:37.476Z,50.60
2022-08-20T11:41:14.565Z,52.40
2022-08-20T11:43:10.996Z,51.57
2022-08-20T11:44:40.891Z,52.10
2022-08-20T11:46:15.552Z,53.27
2022-08-20T11:47:48.798Z,52.30
2022-08-20T11:49:22.011Z,51.00
2022-08-20T11:50:55.204Z,53.70
2022-08-20T11:52:29.348Z,53.93
2022-08-20T11:54:03.479Z,53.30
2022-08-20T11:55:37.228Z,55.07
2022-08-20T11:57:11.848Z,53.17
2022-08-20T11:58:46.948Z,53.87
2022-08-20T12:00:32.032Z,54.20
2022-08-20T12:02:12.181Z,54.33
2022-08-20T12:03:45.697Z,54.20
2022-08-20T12:05:19.444Z,55.17
2022-08-20T12:06:52.592Z,48.77
2022-08-20T12:08:27.392Z,50.13
2022-08-20T12:10:01.457Z,50.17
2022-08-20T12:11:34.760Z,48.00
2022-08-20T12:13:08.558Z,47.93
2022-08-20T12:14:41.883Z,46.77
2022-08-20T12:16:15.035Z,47.33
2022-08-20T12:17:49.579Z,47.37
2022-08-20T12:19:22.737Z,44.63
2022-08-20T12:20:56.596Z,45.63
2022-08-20T12:22:29.704Z,44.67
2022-08-20T12:24:02.841Z,44.17
2022-08-20T12:25:35.993Z,46.27
2022-08-20T12:27:12.342Z,43.93
2022-08-20T12:28:45.544Z,44.27
2022-08-20T12:30:23.613Z,44.13
2022-08-20T12:31:56.738Z,45.43
2022-08-20T12:33:31.405Z,45.57
2022-08-20T12:35:05.552Z,44.23
2022-08-20T12:36:38.836Z,45.20
2022-08-20T12:38:12.051Z,43.73
2022-08-20T12:39:48.885Z,42.27
2022-08-20T12:41:22.591Z,40.67
2022-08-20T12:42:56.105Z,40.53
2022-08-20T12:44:31.169Z,40.50
2022-08-20T12:46:04.581Z,40.47
2022-08-20T12:47:40.185Z,38.57
2022-08-20T12:49:14.774Z,40.23
2022-08-20T12:50:49.886Z,38.63
2022-08-20T12:52:24.850Z,39.00
2022-08-20T12:53:58.595Z,38.50
2022-08-20T12:55:32.519Z,36.77
2022-08-20T12:57:08.120Z,36.37
2022-08-20T12:58:41.567Z,36.03
2022-08-20T13:00:15.824Z,34.87
2022-08-20T13:01:49.024Z,35.40
2022-08-20T13:03:22.163Z,35.57
2022-08-20T13:04:55.756Z,34.20
2022-08-20T13:06:31.395Z,31.60
2022-08-20T13:08:08.284Z,31.37
2022-08-20T13:09:41.887Z,33.83
2022-08-20T13:11:15.086Z,33.77
2022-08-20T13:12:48.580Z,33.00
2022-08-20T13:14:21.750Z,33.07
2022-08-20T13:15:54.821Z,31.70
2022-08-20T13:17:38.467Z,32.67
2022-08-20T13:19:12.811Z,30.33
2022-08-20T13:20:48.021Z,31.43
2022-08-20T13:22:21.179Z,32.53
2022-08-20T13:23:54.416Z,32.57
2022-08-20T13:25:27.779Z,33.17
2022-08-20T13:27:08.950Z,30.33
2022-08-20T13:28:42.265Z,32.00
2022-08-20T13:30:18.982Z,32.03
2022-08-20T13:31:52.171Z,31.90
2022-08-20T13:33:26.568Z,32.00
2022-08-20T13:34:59.893Z,32.13
2022-08-20T13:36:34.676Z,32.33
2022-08-20T13:38:07.917Z,33.30
2022-08-20T13:39:42.236Z,33.07
2022-08-20T13:41:15.466Z,31.00
2022-08-20T13:42:48.614Z,30.83
2022-08-20T13:44:21.756Z,31.00
2022-08-20T13:46:06.629Z,28.27
2022-08-20T13:47:41.412Z,29.40
2022-08-20T13:49:14.796Z,29.50
2022-08-20T13:50:48.037Z,27.70
2022-08-20T13:52:22.619Z,29.93
2022-08-20T13:53:57.013Z,30.53
2022-08-20T13:55:30.685Z,33.10
2022-08-20T13:57:09.475Z,32.33
2022-08-20T13:58:42.727Z,34.47
2022-08-20T14:00:20.348Z,36.90
2022-08-20T14:01:53.505Z,35.83
2022-08-20T14:03:26.694Z,37.50
2022-08-20T14:05:00.342Z,33.07
2022-08-20T14:06:33.924Z,33.37
2022-08-20T14:08:11.625Z,34.77
2022-08-20T14:09:46.953Z,34.07
2022-08-20T14:11:20.367Z,30.13
2022-08-20T14:12:53.636Z,26.30
2022-08-20T14:14:26.913Z,26.97
2022-08-20T14:16:00.027Z,23.60
2022-08-20T14:17:35.528Z,21.73
2022-08-20T14:19:08.689Z,22.63
2022-08-20T14:20:42.742Z,22.17
2022-08-20T14:22:19.733Z,20.37
2022-08-20T14:23:55.787Z,19.53
2022-08-20T14:25:29.806Z,21.73
2022-08-20T14:27:05.087Z,22.97
2022-08-20T14:28:39.201Z,23.60
2022-08-20T14:30:14.956Z,26.20
2022-08-20T14:31:48.073Z,25.23
2022-08-20T14:33:21.391Z,28.07
2022-08-20T14:34:54.764Z,28.87
2022-08-20T14:36:27.993Z,27.87
2022-08-20T14:38:01.155Z,27.43
2022-08-20T14:39:36.068Z,27.50
2022-08-20T14:41:09.168Z,30.17
2022-08-20T14:42:43.452Z,26.90
2022-08-20T14:44:20.839Z,23.60
2022-08-20T14:45:53.998Z,23.43
2022-08-20T14:47:30.606Z,22.30
2022-08-20T14:49:03.800Z,17.23
2022-08-20T14:50:37.264Z,16.93
2022-08-20T14:52:09.641Z,17.33
2022-08-20T14:53:42.754Z,22.20
2022-08-20T14:55:20.323Z,21.10
2022-08-20T14:56:53.453Z,21.37
2022-08-20T14:58:26.989Z,21.60
2022-08-20T15:00:00.330Z,21.00
2022-08-20T15:01:33.597Z,15.83
2022-08-20T15:03:06.819Z,16.87
2022-08-20T15:04:41.135Z,16.23
2022-08-20T15:06:21.804Z,16.77
2022-08-20T15:07:57.209Z,14.60
2022-08-20T15:09:31.922Z,12.97
2022-08-20T15:11:07.488Z,11.20
2022-08-20T15:12:43.193Z,12.37
2022-08-20T15:14:18.433Z,12.77
2022-08-20T15:15:52.720Z,12.93
2022-08-20T15:17:28.042Z,13.97
2022-08-20T15:19:01.536Z,14.27
2022-08-20T15:20:36.130Z,14.67
2022-08-20T15:22:09.292Z,14.93
2022-08-20T15:23:42.459Z,16.00
2022-08-20T15:25:18.605Z,15.63
2022-08-20T15:26:53.200Z,16.37
2022-08-20T15:28:26.344Z,16.33
2022-08-20T15:29:58.537Z,16.57
2022-08-20T15:31:31.952Z,15.93
2022-08-20T15:33:05.298Z,16.57
2022-08-20T15:34:39.457Z,16.47
2022-08-20T15:36:12.767Z,17.10
2022-08-20T15:37:47.983Z,17.87
2022-08-20T15:39:21.110Z,17.87
2022-08-20T15:40:54.222Z,17.73
2022-08-20T15:42:27.785Z,17.07
2022-08-20T15:44:00.900Z,18.27
2022-08-20T15:45:35.500Z,18.53
2022-08-20T15:47:22.194Z,18.47
2022-08-20T15:48:55.904Z,18.80
2022-08-20T15:50:45.223Z,18.30
2022-08-20T15:52:19.121Z,19.60
2022-08-20T15:54:00.336Z,19.07
2022-08-20T15:55:34.674Z,19.67
2022-08-20T15:57:13.578Z,19.03
2022-08-20T15:58:55.014Z,20.33
2022-08-20T16:00:35.428Z,21.03
2022-08-20T16:02:25.872Z,21.60
2022-08-20T16:04:26.868Z,21.70
2022-08-20T16:06:04.024Z,22.13
2022-08-20T16:07:49.761Z,25.77
2022-08-20T16:09:40.378Z,26.50
2022-08-20T16:11:23.124Z,28.10
2022-08-20T16:12:59.807Z,24.83
2022-08-20T16:14:39.060Z,25.67
2022-08-20T16:16:17.552Z,24.63
2022-08-20T16:17:59.161Z,25.13
2022-08-20T16:19:38.398Z,28.00
2022-08-20T16:21:14.925Z,29.80
2022-08-20T16:22:48.484Z,27.93
2022-08-20T16:24:22.359Z,25.43
2022-08-20T16:26:03.908Z,25.50
2022-08-20T16:27:46.605Z,26.13
2022-08-20T16:29:25.354Z,24.87
2022-08-20T16:31:04.913Z,26.53
2022-08-20T16:32:43.089Z,27.27
2022-08-20T16:34:33.415Z,28.43
2022-08-20T16:36:11.977Z,27.83
2022-08-20T16:37:52.492Z,27.37
2022-08-20T16:39:28.342Z,29.53
2022-08-20T16:41:08.190Z,28.87
2022-08-20T16:42:44.701Z,30.03
2022-08-20T16:44:28.806Z,30.87
2022-08-20T16:46:06.716Z,30.67
2022-08-20T16:47:41.364Z,29.47
2022-08-20T16:49:15.382Z,30.07
2022-08-20T16:50:59.501Z,31.93
2022-08-20T16:52:32.690Z,31.53
2022-08-20T16:54:06.508Z,31.97
2022-08-20T16:55:41.978Z,33.50
2022-08-20T16:57:17.531Z,32.67
2022-08-20T16:58:50.791Z,33.17
2022-08-20T17:00:29.435Z,32.80
2022-08-20T17:02:10.431Z,32.43
2022-08-20T17:03:51.223Z,32.53
2022-08-20T17:05:27.809Z,34.23
2022-08-20T17:07:03.535Z,34.67
2022-08-20T17:08:49.754Z,35.90
2022-08-20T17:10:26.377Z,36.10
2022-08-20T17:12:15.653Z,35.80
2022-08-20T17:13:49.562Z,36.47
2022-08-20T17:15:26.713Z,37.83
2022-08-20T17:16:59.873Z,36.67
2022-08-20T17:18:36.664Z,35.77
2022-08-20T17:20:16.354Z,36.43
2022-08-20T17:21:54.057Z,37.53
2022-08-20T17:23:27.725Z,38.03
2022-08-20T17:25:00.889Z,38.53
2022-08-20T17:26:36.487Z,39.57
2022-08-20T17:28:17.279Z,40.90
2022-08-20T17:29:53.442Z,38.53
2022-08-20T17:31:38.756Z,33.83
2022-08-20T17:33:24.648Z,32.47
2022-08-20T17:35:01.846Z,32.03
2022-08-20T17:36:35.155Z,34.23
2022-08-20T17:38:08.358Z,37.93
2022-08-20T17:39:48.368Z,37.87
2022-08-20T17:41:24.848Z,36.27
2022-08-20T17:43:01.604Z,38.03
2022-08-20T17:44:38.392Z,38.83
2022-08-20T17:46:16.626Z,35.43
2022-08-20T17:47:50.362Z,36.10
2022-08-20T17:49:34.996Z,33.67
2022-08-20T17:51:17.445Z,35.47
2022-08-20T17:52:53.729Z,35.17
2022-08-20T17:54:32.579Z,34.10
2022-08-20T17:56:19.399Z,35.63
2022-08-20T17:57:57.975Z,33.83
2022-08-20T17:59:59.709Z,34.43
2022-08-20T18:01:28.197Z,33.50
2022-08-20T18:03:07.333Z,31.90
2022-08-20T18:04:40.891Z,32.73
2022-08-20T18:06:25.334Z,33.77
2022-08-20T18:08:12.694Z,34.20
2022-08-20T18:09:51.575Z,34.00
2022-08-20T18:11:34.140Z,35.00
2022-08-20T18:13:13.133Z,34.73
2022-08-20T18:14:59.561Z,35.87
2022-08-20T18:16:47.259Z,36.70
2022-08-20T18:18:29.638Z,35.17
2022-08-20T18:20:25.031Z,35.53
2022-08-20T18:22:09.824Z,34.50
2022-08-20T18:23:47.743Z,33.03
2022-08-20T18:25:34.494Z,33.47
2022-08-20T18:27:12.764Z,35.07
2022-08-20T18:28:49.677Z,34.77
2022-08-20T18:30:25.738Z,34.10
2022-08-20T18:32:01.083Z,36.07
2022-08-20T18:33:37.620Z,35.53
2022-08-20T18:35:13.518Z,37.50
2022-08-20T18:36:56.081Z,32.83
2022-08-20T18:38:34.486Z,34.37
2022-08-20T18:40:15.882Z,34.00
2022-08-20T18:41:58.709Z,34.57
2022-08-20T18:43:32.245Z,33.90
2022-08-20T18:45:07.314Z,35.83
2022-08-20T18:46:53.448Z,35.80
2022-08-20T18:48:26.664Z,34.27
2022-08-20T18:50:06.429Z,32.27
2022-08-20T18:51:51.680Z,34.30
2022-08-20T18:53:33.724Z,34.23
2022-08-20T18:55:12.973Z,35.63
2022-08-20T18:56:46.093Z,31.63
2022-08-20T18:58:31.179Z,31.93
2022-08-20T19:00:11.811Z,33.13
2022-08-20T19:01:48.457Z,34.47
2022-08-20T19:03:27.303Z,34.37
2022-08-20T19:05:03.354Z,33.70
2022-08-20T19:06:42.613Z,33.63
2022-08-20T19:08:22.114Z,31.13
2022-08-20T19:10:24.149Z,34.67
2022-08-20T19:12:21.889Z,37.67
2022-08-20T19:14:34.838Z,36.00
2022-08-20T19:16:12.719Z,33.90
2022-08-20T19:18:03.195Z,35.23
2022-08-20T19:19:35.551Z,34.47
2022-08-20T19:21:15.782Z,35.67
2022-08-20T19:22:51.365Z,36.07
2022-08-20T19:24:27.822Z,35.90
2022-08-20T19:26:05.629Z,37.20
2022-08-20T19:27:47.848Z,37.60
2022-08-20T19:29:26.372Z,37.43
2022-08-20T19:31:10.614Z,37.37
2022-08-20T19:32:52.892Z,37.17
2022-08-20T19:34:26.912Z,37.77
2022-08-20T19:36:11.817Z,35.90
2022-08-20T19:37:50.966Z,35.60
2022-08-20T19:39:26.126Z,35.70
2022-08-20T19:41:11.460Z,34.97
2022-08-20T19:42:45.588Z,35.53
2022-08-20T19:44:31.965Z,38.83
2022-08-20T19:46:05.448Z,33.87
2022-08-20T19:47:47.249Z,35.37
2022-08-20T19:49:28.459Z,35.87
2022-08-20T19:51:07.384Z,34.93
2022-08-20T19:53:02.960Z,36.67
2022-08-20T19:54:46.310Z,38.37
2022-08-20T19:56:21.258Z,36.70
2022-08-20T19:57:56.391Z,36.87
2022-08-20T19:59:31.069Z,35.73
2022-08-20T20:01:06.271Z,37.17
2022-08-20T20:02:41.553Z,36.87
2022-08-20T20:04:18.816Z,33.87
2022-08-20T20:05:55.643Z,37.27
2022-08-20T20:07:40.733Z,37.70
2022-08-20T20:09:19.523Z,36.10
2022-08-20T20:10:55.810Z,36.40
2022-08-20T20:12:34.447Z,33.90
2022-08-20T20:14:10.550Z,34.63
2022-08-20T20:15:44.932Z,35.70
2022-08-20T20:17:23.371Z,34.57
2022-08-20T20:19:22.654Z,35.73
2022-08-20T20:20:57.732Z,35.53
2022-08-20T20:22:34.377Z,35.00
2022-08-20T20:24:08.241Z,35.43
2022-08-20T20:25:45.053Z,35.53
2022-08-20T20:27:23.206Z,36.33
2022-08-20T20:32:24.136Z,36.83
2022-08-20T20:33:59.337Z,37.10
2022-08-20T20:35:36.168Z,37.13
2022-08-20T20:37:12.511Z,37.70
2022-08-20T20:38:55.125Z,39.97
2022-08-20T20:40:33.736Z,38.87
2022-08-20T20:42:11.630Z,39.17
2022-08-20T20:43:43.789Z,40.30